sensor_id;sensor_type;location;lat;lon;timestamp;temperature;humidity
41310;DHT22;27057;51.438;-0.010;2023-08-17T00:00:04;18.40;99.90
41310;DHT22;27057;51.438;-0.010;2023-08-17T00:02:35;18.20;99.90
41310;DHT22;27057;51.438;-0.010;2023-08-17T00:05:03;18.30;99.90
41310;DHT22;27057;51.438;-0.010;2023-08-17T00:07:30;18.20;99.90
41310;DHT22;27057;51.438;-0.010;2023-08-17T00:09:57;18.20;99.90
41310;DHT22;27057;51.438;-0.010;2023-08-17T00:12:25;18.20;99.90
41310;DHT22;27057;51.438;-0.010;2023-08-17T00:14:53;18.20;99.90
41310;DHT22;27057;51.438;-0.010;2023-08-17T00:17:20;18.20;99.90
41310;DHT22;27057;51.438;-0.010;2023-08-17T00:19:47;18.20;99.90
41310;DHT22;27057;51.438;-0.010;2023-08-17T00:22:15;18.20;99.90
41310;DHT22;27057;51.438;-0.010;2023-08-17T00:24:42;18.30;99.90
41310;DHT22;27057;51.438;-0.010;2023-08-17T00:27:12;18.30;99.90
41310;DHT22;27057;51.438;-0.010;2023-08-17T00:29:39;18.40;99.90
41310;DHT22;27057;51.438;-0.010;2023-08-17T00:32:06;18.50;99.90
41310;DHT22;27057;51.438;-0.010;2023-08-17T00:34:35;18.50;99.90
41310;DHT22;27057;51.438;-0.010;2023-08-17T00:37:03;18.50;99.90
41310;DHT22;27057;51.438;-0.010;2023-08-17T00:39:30;18.60;99.90
41310;DHT22;27057;51.438;-0.010;2023-08-17T00:41:57;18.60;99.90
41310;DHT22;27057;51.438;-0.010;2023-08-17T00:44:25;18.50;99.90
41310;DHT22;27057;51.438;-0.010;2023-08-17T00:46:52;18.50;99.90
41310;DHT22;27057;51.438;-0.010;2023-08-17T00:49:19;18.50;99.90
41310;DHT22;27057;51.438;-0.010;2023-08-17T00:51:47;18.40;99.90
41310;DHT22;27057;51.438;-0.010;2023-08-17T00:54:15;18.40;99.90
41310;DHT22;27057;51.438;-0.010;2023-08-17T00:56:47;18.30;99.90
41310;DHT22;27057;51.438;-0.010;2023-08-17T00:59:15;18.30;99.90
41310;DHT22;27057;51.438;-0.010;2023-08-17T01:01:42;18.30;99.90
41310;DHT22;27057;51.438;-0.010;2023-08-17T01:04:10;18.30;99.90
41310;DHT22;27057;51.438;-0.010;2023-08-17T01:06:38;18.30;99.90
41310;DHT22;27057;51.438;-0.010;2023-08-17T01:09:06;18.20;99.90
41310;DHT22;27057;51.438;-0.010;2023-08-17T01:15:01;18.10;99.90
41310;DHT22;27057;51.438;-0.010;2023-08-17T01:17:37;18.10;99.90
41310;DHT22;27057;51.438;-0.010;2023-08-17T01:20:08;18.10;99.90
41310;DHT22;27057;51.438;-0.010;2023-08-17T01:22:41;18.00;99.90
41310;DHT22;27057;51.438;-0.010;2023-08-17T01:25:09;18.00;99.90
41310;DHT22;27057;51.438;-0.010;2023-08-17T01:27:45;18.00;99.90
41310;DHT22;27057;51.438;-0.010;2023-08-17T01:30:15;17.90;99.90
41310;DHT22;27057;51.438;-0.010;2023-08-17T01:33:01;18.00;99.90
41310;DHT22;27057;51.438;-0.010;2023-08-17T01:35:39;17.90;99.90
41310;DHT22;27057;51.438;-0.010;2023-08-17T01:38:14;18.00;99.90
41310;DHT22;27057;51.438;-0.010;2023-08-17T01:40:45;18.00;99.90
41310;DHT22;27057;51.438;-0.010;2023-08-17T01:43:16;17.90;99.90
41310;DHT22;27057;51.438;-0.010;2023-08-17T01:45:44;18.00;99.90
41310;DHT22;27057;51.438;-0.010;2023-08-17T01:48:11;17.90;99.90
41310;DHT22;27057;51.438;-0.010;2023-08-17T01:50:39;17.90;99.90
41310;DHT22;27057;51.438;-0.010;2023-08-17T01:53:06;17.90;99.90
41310;DHT22;27057;51.438;-0.010;2023-08-17T01:55:33;17.80;99.90
41310;DHT22;27057;51.438;-0.010;2023-08-17T01:58:02;17.80;99.90
41310;DHT22;27057;51.438;-0.010;2023-08-17T02:00:29;17.90;99.90
41310;DHT22;27057;51.438;-0.010;2023-08-17T02:02:57;17.80;99.90
41310;DHT22;27057;51.438;-0.010;2023-08-17T02:05:25;17.80;99.90
41310;DHT22;27057;51.438;-0.010;2023-08-17T02:07:55;17.80;99.90
41310;DHT22;27057;51.438;-0.010;2023-08-17T02:10:22;17.80;99.90
41310;DHT22;27057;51.438;-0.010;2023-08-17T02:12:50;17.70;99.90
41310;DHT22;27057;51.438;-0.010;2023-08-17T02:15:25;17.80;99.90
41310;DHT22;27057;51.438;-0.010;2023-08-17T02:17:52;17.70;99.90
41310;DHT22;27057;51.438;-0.010;2023-08-17T02:20:19;17.80;99.90
41310;DHT22;27057;51.438;-0.010;2023-08-17T02:22:47;17.70;99.90
41310;DHT22;27057;51.438;-0.010;2023-08-17T02:25:14;17.80;99.90
41310;DHT22;27057;51.438;-0.010;2023-08-17T02:27:42;17.70;99.90
41310;DHT22;27057;51.438;-0.010;2023-08-17T02:30:10;17.70;99.90
41310;DHT22;27057;51.438;-0.010;2023-08-17T02:32:37;17.70;99.90
41310;DHT22;27057;51.438;-0.010;2023-08-17T02:35:06;17.70;99.90
41310;DHT22;27057;51.438;-0.010;2023-08-17T02:37:33;17.70;99.90
41310;DHT22;27057;51.438;-0.010;2023-08-17T02:40:01;17.70;99.90
41310;DHT22;27057;51.438;-0.010;2023-08-17T02:42:28;17.70;99.90
41310;DHT22;27057;51.438;-0.010;2023-08-17T02:44:55;17.80;99.90
41310;DHT22;27057;51.438;-0.010;2023-08-17T02:47:23;17.70;99.90
41310;DHT22;27057;51.438;-0.010;2023-08-17T02:49:51;17.90;99.90
41310;DHT22;27057;51.438;-0.010;2023-08-17T02:52:18;17.90;99.90
41310;DHT22;27057;51.438;-0.010;2023-08-17T02:54:45;18.00;99.90
41310;DHT22;27057;51.438;-0.010;2023-08-17T02:57:13;17.90;99.90
41310;DHT22;27057;51.438;-0.010;2023-08-17T02:59:40;18.10;99.90
41310;DHT22;27057;51.438;-0.010;2023-08-17T03:02:07;18.10;99.90
41310;DHT22;27057;51.438;-0.010;2023-08-17T03:04:35;18.20;99.90
41310;DHT22;27057;51.438;-0.010;2023-08-17T03:07:02;18.30;99.90
41310;DHT22;27057;51.438;-0.010;2023-08-17T03:09:29;18.40;99.90
41310;DHT22;27057;51.438;-0.010;2023-08-17T03:11:57;18.40;99.90
41310;DHT22;27057;51.438;-0.010;2023-08-17T03:14:24;18.40;99.90
41310;DHT22;27057;51.438;-0.010;2023-08-17T03:16:51;18.50;99.90
41310;DHT22;27057;51.438;-0.010;2023-08-17T03:19:19;18.40;99.90
41310;DHT22;27057;51.438;-0.010;2023-08-17T03:21:46;18.40;99.90
41310;DHT22;27057;51.438;-0.010;2023-08-17T03:24:14;18.50;99.90
41310;DHT22;27057;51.438;-0.010;2023-08-17T03:26:41;18.50;99.90
41310;DHT22;27057;51.438;-0.010;2023-08-17T03:29:08;18.50;99.90
41310;DHT22;27057;51.438;-0.010;2023-08-17T03:31:37;18.50;99.90
41310;DHT22;27057;51.438;-0.010;2023-08-17T03:34:07;18.50;99.90
41310;DHT22;27057;51.438;-0.010;2023-08-17T03:36:35;18.40;99.90
41310;DHT22;27057;51.438;-0.010;2023-08-17T03:39:03;18.50;99.90
41310;DHT22;27057;51.438;-0.010;2023-08-17T03:41:31;18.50;99.90
41310;DHT22;27057;51.438;-0.010;2023-08-17T03:43:58;18.30;99.90
41310;DHT22;27057;51.438;-0.010;2023-08-17T03:46:25;18.90;99.90
41310;DHT22;27057;51.438;-0.010;2023-08-17T03:48:53;18.60;99.90
41310;DHT22;27057;51.438;-0.010;2023-08-17T03:51:20;18.60;99.90
41310;DHT22;27057;51.438;-0.010;2023-08-17T03:53:47;18.50;99.90
41310;DHT22;27057;51.438;-0.010;2023-08-17T03:56:15;18.50;99.90
41310;DHT22;27057;51.438;-0.010;2023-08-17T03:58:42;18.50;99.90
41310;DHT22;27057;51.438;-0.010;2023-08-17T04:01:10;18.50;99.90
41310;DHT22;27057;51.438;-0.010;2023-08-17T04:03:41;18.50;99.90
41310;DHT22;27057;51.438;-0.010;2023-08-17T04:06:08;18.50;99.90
41310;DHT22;27057;51.438;-0.010;2023-08-17T04:08:37;18.50;99.90
41310;DHT22;27057;51.438;-0.010;2023-08-17T04:11:05;18.50;99.90
41310;DHT22;27057;51.438;-0.010;2023-08-17T04:13:33;18.50;99.90
41310;DHT22;27057;51.438;-0.010;2023-08-17T04:16:00;18.50;99.90
41310;DHT22;27057;51.438;-0.010;2023-08-17T04:18:27;18.50;99.90
41310;DHT22;27057;51.438;-0.010;2023-08-17T04:20:55;18.50;99.90
41310;DHT22;27057;51.438;-0.010;2023-08-17T04:23:22;18.50;99.90
41310;DHT22;27057;51.438;-0.010;2023-08-17T04:25:49;18.60;99.90
41310;DHT22;27057;51.438;-0.010;2023-08-17T04:28:17;18.60;99.90
41310;DHT22;27057;51.438;-0.010;2023-08-17T04:30:45;18.50;99.90
41310;DHT22;27057;51.438;-0.010;2023-08-17T04:33:13;18.50;99.90
41310;DHT22;27057;51.438;-0.010;2023-08-17T04:35:40;18.60;99.90
41310;DHT22;27057;51.438;-0.010;2023-08-17T04:38:08;18.60;99.90
41310;DHT22;27057;51.438;-0.010;2023-08-17T04:40:37;18.50;99.90
41310;DHT22;27057;51.438;-0.010;2023-08-17T04:43:04;18.50;99.90
41310;DHT22;27057;51.438;-0.010;2023-08-17T04:45:32;18.50;99.90
41310;DHT22;27057;51.438;-0.010;2023-08-17T04:47:59;18.50;99.90
41310;DHT22;27057;51.438;-0.010;2023-08-17T04:50:26;18.50;99.90
41310;DHT22;27057;51.438;-0.010;2023-08-17T04:52:54;18.50;99.90
41310;DHT22;27057;51.438;-0.010;2023-08-17T04:55:21;18.50;99.90
41310;DHT22;27057;51.438;-0.010;2023-08-17T04:57:48;18.50;99.90
41310;DHT22;27057;51.438;-0.010;2023-08-17T05:00:16;18.50;99.90
41310;DHT22;27057;51.438;-0.010;2023-08-17T05:02:44;18.50;99.90
41310;DHT22;27057;51.438;-0.010;2023-08-17T05:05:13;18.50;99.90
41310;DHT22;27057;51.438;-0.010;2023-08-17T05:07:40;18.60;99.90
41310;DHT22;27057;51.438;-0.010;2023-08-17T05:10:07;18.60;99.90
41310;DHT22;27057;51.438;-0.010;2023-08-17T05:12:37;18.60;99.90
41310;DHT22;27057;51.438;-0.010;2023-08-17T05:15:05;18.60;99.90
41310;DHT22;27057;51.438;-0.010;2023-08-17T05:17:37;18.50;99.90
41310;DHT22;27057;51.438;-0.010;2023-08-17T05:20:05;18.60;99.90
41310;DHT22;27057;51.438;-0.010;2023-08-17T05:22:32;18.60;99.90
41310;DHT22;27057;51.438;-0.010;2023-08-17T05:25:00;18.60;99.90
41310;DHT22;27057;51.438;-0.010;2023-08-17T05:27:27;18.60;99.90
41310;DHT22;27057;51.438;-0.010;2023-08-17T05:29:55;18.60;99.90
41310;DHT22;27057;51.438;-0.010;2023-08-17T05:32:22;18.70;99.90
41310;DHT22;27057;51.438;-0.010;2023-08-17T05:34:51;18.70;99.90
41310;DHT22;27057;51.438;-0.010;2023-08-17T05:37:20;18.70;99.90
41310;DHT22;27057;51.438;-0.010;2023-08-17T05:39:47;18.70;99.90
41310;DHT22;27057;51.438;-0.010;2023-08-17T05:42:14;18.70;99.90
41310;DHT22;27057;51.438;-0.010;2023-08-17T05:44:42;18.70;99.90
41310;DHT22;27057;51.438;-0.010;2023-08-17T05:47:09;18.80;99.90
41310;DHT22;27057;51.438;-0.010;2023-08-17T05:49:36;18.90;99.90
41310;DHT22;27057;51.438;-0.010;2023-08-17T05:52:05;18.90;99.90
41310;DHT22;27057;51.438;-0.010;2023-08-17T05:54:32;18.90;99.90
41310;DHT22;27057;51.438;-0.010;2023-08-17T05:56:59;18.90;99.90
41310;DHT22;27057;51.438;-0.010;2023-08-17T05:59:27;18.90;99.90
41310;DHT22;27057;51.438;-0.010;2023-08-17T06:01:54;18.90;99.90
41310;DHT22;27057;51.438;-0.010;2023-08-17T06:04:22;18.90;99.90
41310;DHT22;27057;51.438;-0.010;2023-08-17T06:06:50;18.90;99.90
41310;DHT22;27057;51.438;-0.010;2023-08-17T06:09:17;18.90;99.90
41310;DHT22;27057;51.438;-0.010;2023-08-17T06:11:44;18.90;99.90
41310;DHT22;27057;51.438;-0.010;2023-08-17T06:14:11;18.90;99.90
41310;DHT22;27057;51.438;-0.010;2023-08-17T06:16:39;18.90;99.90
41310;DHT22;27057;51.438;-0.010;2023-08-17T06:19:06;19.00;99.90
41310;DHT22;27057;51.438;-0.010;2023-08-17T06:21:34;19.00;99.90
41310;DHT22;27057;51.438;-0.010;2023-08-17T06:24:04;19.10;99.90
41310;DHT22;27057;51.438;-0.010;2023-08-17T06:26:31;19.00;99.90
41310;DHT22;27057;51.438;-0.010;2023-08-17T06:28:59;19.00;99.90
41310;DHT22;27057;51.438;-0.010;2023-08-17T06:31:28;19.10;99.90
41310;DHT22;27057;51.438;-0.010;2023-08-17T06:33:55;19.20;99.90
41310;DHT22;27057;51.438;-0.010;2023-08-17T06:36:23;19.20;99.90
41310;DHT22;27057;51.438;-0.010;2023-08-17T06:38:50;19.30;99.90
41310;DHT22;27057;51.438;-0.010;2023-08-17T06:41:17;19.30;99.90
41310;DHT22;27057;51.438;-0.010;2023-08-17T06:43:45;19.30;99.90
41310;DHT22;27057;51.438;-0.010;2023-08-17T06:46:12;19.40;99.90
41310;DHT22;27057;51.438;-0.010;2023-08-17T06:48:39;19.30;99.90
41310;DHT22;27057;51.438;-0.010;2023-08-17T06:51:07;19.30;99.90
41310;DHT22;27057;51.438;-0.010;2023-08-17T06:53:34;19.30;99.90
41310;DHT22;27057;51.438;-0.010;2023-08-17T06:56:01;19.30;99.90
41310;DHT22;27057;51.438;-0.010;2023-08-17T06:58:29;19.30;99.90
41310;DHT22;27057;51.438;-0.010;2023-08-17T07:00:56;19.40;99.90
41310;DHT22;27057;51.438;-0.010;2023-08-17T07:03:23;19.50;99.90
41310;DHT22;27057;51.438;-0.010;2023-08-17T07:05:51;19.50;99.90
41310;DHT22;27057;51.438;-0.010;2023-08-17T07:08:18;19.60;99.90
41310;DHT22;27057;51.438;-0.010;2023-08-17T07:10:45;19.60;99.90
41310;DHT22;27057;51.438;-0.010;2023-08-17T07:13:13;19.60;99.90
41310;DHT22;27057;51.438;-0.010;2023-08-17T07:15:40;19.60;99.90
41310;DHT22;27057;51.438;-0.010;2023-08-17T07:18:07;19.60;99.90
41310;DHT22;27057;51.438;-0.010;2023-08-17T07:20:35;19.70;99.90
41310;DHT22;27057;51.438;-0.010;2023-08-17T07:23:02;19.80;99.90
41310;DHT22;27057;51.438;-0.010;2023-08-17T07:25:30;19.90;99.90
41310;DHT22;27057;51.438;-0.010;2023-08-17T07:27:57;19.90;99.90
41310;DHT22;27057;51.438;-0.010;2023-08-17T07:30:25;20.00;99.90
41310;DHT22;27057;51.438;-0.010;2023-08-17T07:32:52;20.00;99.90
41310;DHT22;27057;51.438;-0.010;2023-08-17T07:35:20;20.00;99.90
41310;DHT22;27057;51.438;-0.010;2023-08-17T07:37:47;20.20;99.90
41310;DHT22;27057;51.438;-0.010;2023-08-17T07:40:29;20.20;99.90
41310;DHT22;27057;51.438;-0.010;2023-08-17T07:42:57;20.30;99.90
41310;DHT22;27057;51.438;-0.010;2023-08-17T07:45:24;20.40;99.90
41310;DHT22;27057;51.438;-0.010;2023-08-17T07:47:52;20.50;99.90
41310;DHT22;27057;51.438;-0.010;2023-08-17T07:50:19;20.60;99.90
41310;DHT22;27057;51.438;-0.010;2023-08-17T07:52:48;20.60;99.90
41310;DHT22;27057;51.438;-0.010;2023-08-17T07:55:15;20.70;99.90
41310;DHT22;27057;51.438;-0.010;2023-08-17T07:57:43;20.80;99.90
41310;DHT22;27057;51.438;-0.010;2023-08-17T08:00:11;20.90;99.90
41310;DHT22;27057;51.438;-0.010;2023-08-17T08:02:38;20.90;99.90
41310;DHT22;27057;51.438;-0.010;2023-08-17T08:05:06;21.00;99.90
41310;DHT22;27057;51.438;-0.010;2023-08-17T08:07:33;21.00;99.90
41310;DHT22;27057;51.438;-0.010;2023-08-17T08:10:01;21.00;99.90
41310;DHT22;27057;51.438;-0.010;2023-08-17T08:12:28;21.10;99.90
41310;DHT22;27057;51.438;-0.010;2023-08-17T08:14:57;21.20;99.90
41310;DHT22;27057;51.438;-0.010;2023-08-17T08:17:24;21.30;99.90
41310;DHT22;27057;51.438;-0.010;2023-08-17T08:19:52;21.30;99.90
41310;DHT22;27057;51.438;-0.010;2023-08-17T08:22:19;21.40;99.90
41310;DHT22;27057;51.438;-0.010;2023-08-17T08:24:47;21.40;99.90
41310;DHT22;27057;51.438;-0.010;2023-08-17T08:27:14;21.40;99.90
41310;DHT22;27057;51.438;-0.010;2023-08-17T08:29:41;21.50;99.90
41310;DHT22;27057;51.438;-0.010;2023-08-17T08:32:08;21.40;99.90
41310;DHT22;27057;51.438;-0.010;2023-08-17T08:34:36;21.50;99.90
41310;DHT22;27057;51.438;-0.010;2023-08-17T08:37:03;21.50;99.90
41310;DHT22;27057;51.438;-0.010;2023-08-17T08:39:31;21.50;99.90
41310;DHT22;27057;51.438;-0.010;2023-08-17T08:41:58;21.50;99.90
41310;DHT22;27057;51.438;-0.010;2023-08-17T08:44:26;21.60;99.90
41310;DHT22;27057;51.438;-0.010;2023-08-17T08:46:54;21.60;99.90
41310;DHT22;27057;51.438;-0.010;2023-08-17T08:49:24;21.60;99.90
41310;DHT22;27057;51.438;-0.010;2023-08-17T08:51:52;21.60;99.90
41310;DHT22;27057;51.438;-0.010;2023-08-17T08:54:25;21.70;99.90
41310;DHT22;27057;51.438;-0.010;2023-08-17T08:57:00;21.70;99.90
41310;DHT22;27057;51.438;-0.010;2023-08-17T08:59:28;21.80;99.90
41310;DHT22;27057;51.438;-0.010;2023-08-17T09:01:57;21.90;99.90
41310;DHT22;27057;51.438;-0.010;2023-08-17T09:04:25;22.00;99.90
41310;DHT22;27057;51.438;-0.010;2023-08-17T09:06:53;22.00;99.90
41310;DHT22;27057;51.438;-0.010;2023-08-17T09:09:21;22.10;99.90
41310;DHT22;27057;51.438;-0.010;2023-08-17T09:11:55;22.10;99.90
41310;DHT22;27057;51.438;-0.010;2023-08-17T09:14:22;22.20;99.90
41310;DHT22;27057;51.438;-0.010;2023-08-17T09:16:49;22.10;99.90
41310;DHT22;27057;51.438;-0.010;2023-08-17T09:19:18;22.20;99.90
41310;DHT22;27057;51.438;-0.010;2023-08-17T09:21:46;22.10;99.90
41310;DHT22;27057;51.438;-0.010;2023-08-17T09:24:17;22.00;99.90
41310;DHT22;27057;51.438;-0.010;2023-08-17T09:26:45;22.00;99.90
41310;DHT22;27057;51.438;-0.010;2023-08-17T09:29:19;22.10;99.90
41310;DHT22;27057;51.438;-0.010;2023-08-17T09:31:47;22.10;99.90
41310;DHT22;27057;51.438;-0.010;2023-08-17T09:34:15;22.20;99.90
41310;DHT22;27057;51.438;-0.010;2023-08-17T09:36:46;22.20;99.90
41310;DHT22;27057;51.438;-0.010;2023-08-17T09:39:17;22.20;99.90
41310;DHT22;27057;51.438;-0.010;2023-08-17T09:41:45;22.30;99.90
41310;DHT22;27057;51.438;-0.010;2023-08-17T09:44:12;22.30;99.90
41310;DHT22;27057;51.438;-0.010;2023-08-17T09:46:43;22.40;99.90
41310;DHT22;27057;51.438;-0.010;2023-08-17T09:49:10;22.50;99.90
41310;DHT22;27057;51.438;-0.010;2023-08-17T09:51:39;22.50;99.90
41310;DHT22;27057;51.438;-0.010;2023-08-17T09:54:23;22.60;99.90
41310;DHT22;27057;51.438;-0.010;2023-08-17T09:56:52;22.50;99.90
41310;DHT22;27057;51.438;-0.010;2023-08-17T09:59:19;22.60;99.90
41310;DHT22;27057;51.438;-0.010;2023-08-17T10:01:49;22.60;99.90
41310;DHT22;27057;51.438;-0.010;2023-08-17T10:04:23;22.70;99.90
41310;DHT22;27057;51.438;-0.010;2023-08-17T10:07:00;22.60;99.90
41310;DHT22;27057;51.438;-0.010;2023-08-17T10:09:31;22.70;99.90
41310;DHT22;27057;51.438;-0.010;2023-08-17T10:12:10;22.80;99.90
41310;DHT22;27057;51.438;-0.010;2023-08-17T10:14:49;22.90;99.90
41310;DHT22;27057;51.438;-0.010;2023-08-17T10:17:25;23.00;99.90
41310;DHT22;27057;51.438;-0.010;2023-08-17T10:19:55;23.10;99.90
41310;DHT22;27057;51.438;-0.010;2023-08-17T10:22:44;23.20;99.90
41310;DHT22;27057;51.438;-0.010;2023-08-17T10:25:15;23.10;99.90
41310;DHT22;27057;51.438;-0.010;2023-08-17T10:27:44;23.20;99.90
41310;DHT22;27057;51.438;-0.010;2023-08-17T10:30:12;23.30;99.90
41310;DHT22;27057;51.438;-0.010;2023-08-17T10:32:40;23.40;99.90
41310;DHT22;27057;51.438;-0.010;2023-08-17T10:35:13;23.50;99.90
41310;DHT22;27057;51.438;-0.010;2023-08-17T10:37:41;23.60;99.90
41310;DHT22;27057;51.438;-0.010;2023-08-17T10:40:09;23.70;99.90
41310;DHT22;27057;51.438;-0.010;2023-08-17T10:42:41;23.70;99.90
41310;DHT22;27057;51.438;-0.010;2023-08-17T10:45:26;23.80;99.90
41310;DHT22;27057;51.438;-0.010;2023-08-17T10:50:36;24.00;99.90
41310;DHT22;27057;51.438;-0.010;2023-08-17T10:53:13;24.10;99.90
41310;DHT22;27057;51.438;-0.010;2023-08-17T10:55:46;24.00;99.90
41310;DHT22;27057;51.438;-0.010;2023-08-17T10:58:19;24.20;99.90
41310;DHT22;27057;51.438;-0.010;2023-08-17T11:00:46;24.20;99.90
41310;DHT22;27057;51.438;-0.010;2023-08-17T11:03:19;24.20;99.90
41310;DHT22;27057;51.438;-0.010;2023-08-17T11:05:52;24.30;99.90
41310;DHT22;27057;51.438;-0.010;2023-08-17T11:08:33;24.40;99.90
41310;DHT22;27057;51.438;-0.010;2023-08-17T11:11:12;24.40;99.90
41310;DHT22;27057;51.438;-0.010;2023-08-17T11:13:40;24.50;99.90
41310;DHT22;27057;51.438;-0.010;2023-08-17T11:16:09;24.40;99.90
41310;DHT22;27057;51.438;-0.010;2023-08-17T11:18:37;24.50;99.90
41310;DHT22;27057;51.438;-0.010;2023-08-17T11:21:06;24.90;99.90
41310;DHT22;27057;51.438;-0.010;2023-08-17T11:23:35;24.80;99.90
41310;DHT22;27057;51.438;-0.010;2023-08-17T11:26:03;24.90;99.90
41310;DHT22;27057;51.438;-0.010;2023-08-17T11:28:32;25.00;99.90
41310;DHT22;27057;51.438;-0.010;2023-08-17T11:31:12;25.00;99.90
41310;DHT22;27057;51.438;-0.010;2023-08-17T11:33:40;24.90;99.90
41310;DHT22;27057;51.438;-0.010;2023-08-17T11:36:08;24.90;99.90
41310;DHT22;27057;51.438;-0.010;2023-08-17T11:38:39;25.10;99.90
41310;DHT22;27057;51.438;-0.010;2023-08-17T11:41:07;25.30;99.90
41310;DHT22;27057;51.438;-0.010;2023-08-17T11:43:43;25.30;99.90
41310;DHT22;27057;51.438;-0.010;2023-08-17T11:46:11;25.20;99.90
41310;DHT22;27057;51.438;-0.010;2023-08-17T11:48:39;25.00;99.90
41310;DHT22;27057;51.438;-0.010;2023-08-17T11:51:07;24.90;99.90
41310;DHT22;27057;51.438;-0.010;2023-08-17T11:53:35;25.00;99.90
41310;DHT22;27057;51.438;-0.010;2023-08-17T11:56:03;25.00;99.90
41310;DHT22;27057;51.438;-0.010;2023-08-17T11:58:39;25.00;99.90
41310;DHT22;27057;51.438;-0.010;2023-08-17T12:01:09;24.90;99.90
41310;DHT22;27057;51.438;-0.010;2023-08-17T12:03:38;25.20;99.90
41310;DHT22;27057;51.438;-0.010;2023-08-17T12:06:08;25.30;99.90
41310;DHT22;27057;51.438;-0.010;2023-08-17T12:08:35;25.50;99.90
41310;DHT22;27057;51.438;-0.010;2023-08-17T12:11:03;25.80;99.90
41310;DHT22;27057;51.438;-0.010;2023-08-17T12:13:33;26.10;99.90
41310;DHT22;27057;51.438;-0.010;2023-08-17T12:16:04;26.30;99.90
41310;DHT22;27057;51.438;-0.010;2023-08-17T12:18:32;26.60;99.90
41310;DHT22;27057;51.438;-0.010;2023-08-17T12:21:01;26.70;99.90
41310;DHT22;27057;51.438;-0.010;2023-08-17T12:23:28;26.90;99.90
41310;DHT22;27057;51.438;-0.010;2023-08-17T12:25:56;27.10;99.90
41310;DHT22;27057;51.438;-0.010;2023-08-17T12:28:23;27.20;99.90
41310;DHT22;27057;51.438;-0.010;2023-08-17T12:31:02;27.50;99.90
41310;DHT22;27057;51.438;-0.010;2023-08-17T12:33:30;27.80;99.90
41310;DHT22;27057;51.438;-0.010;2023-08-17T12:35:57;28.00;99.90
41310;DHT22;27057;51.438;-0.010;2023-08-17T12:38:25;28.30;99.90
41310;DHT22;27057;51.438;-0.010;2023-08-17T12:40:53;28.60;99.90
41310;DHT22;27057;51.438;-0.010;2023-08-17T12:43:21;28.50;99.90
41310;DHT22;27057;51.438;-0.010;2023-08-17T12:45:48;28.70;99.90
41310;DHT22;27057;51.438;-0.010;2023-08-17T12:48:15;28.60;99.90
41310;DHT22;27057;51.438;-0.010;2023-08-17T12:50:43;28.80;99.90
41310;DHT22;27057;51.438;-0.010;2023-08-17T12:53:11;29.00;99.90
41310;DHT22;27057;51.438;-0.010;2023-08-17T12:55:38;29.10;99.90
41310;DHT22;27057;51.438;-0.010;2023-08-17T12:58:08;28.90;99.90
41310;DHT22;27057;51.438;-0.010;2023-08-17T13:00:36;28.50;99.90
41310;DHT22;27057;51.438;-0.010;2023-08-17T13:03:04;28.60;99.90
41310;DHT22;27057;51.438;-0.010;2023-08-17T13:05:33;28.70;99.90
41310;DHT22;27057;51.438;-0.010;2023-08-17T13:08:00;28.80;99.90
41310;DHT22;27057;51.438;-0.010;2023-08-17T13:10:28;28.90;99.90
41310;DHT22;27057;51.438;-0.010;2023-08-17T13:12:56;28.40;99.90
41310;DHT22;27057;51.438;-0.010;2023-08-17T13:15:26;28.90;99.90
41310;DHT22;27057;51.438;-0.010;2023-08-17T13:17:54;29.10;99.90
41310;DHT22;27057;51.438;-0.010;2023-08-17T13:20:21;29.20;99.90
41310;DHT22;27057;51.438;-0.010;2023-08-17T13:22:48;29.30;99.90
41310;DHT22;27057;51.438;-0.010;2023-08-17T13:25:16;29.60;99.90
41310;DHT22;27057;51.438;-0.010;2023-08-17T13:27:44;29.70;99.90
41310;DHT22;27057;51.438;-0.010;2023-08-17T13:30:12;29.60;99.90
41310;DHT22;27057;51.438;-0.010;2023-08-17T13:32:39;29.80;99.90
41310;DHT22;27057;51.438;-0.010;2023-08-17T13:35:07;29.70;99.90
41310;DHT22;27057;51.438;-0.010;2023-08-17T13:37:36;29.90;99.90
41310;DHT22;27057;51.438;-0.010;2023-08-17T13:40:04;30.20;99.90
41310;DHT22;27057;51.438;-0.010;2023-08-17T13:42:32;30.20;99.90
41310;DHT22;27057;51.438;-0.010;2023-08-17T13:44:59;30.40;99.90
41310;DHT22;27057;51.438;-0.010;2023-08-17T13:47:27;30.10;99.90
41310;DHT22;27057;51.438;-0.010;2023-08-17T13:49:54;30.30;99.90
41310;DHT22;27057;51.438;-0.010;2023-08-17T13:52:25;30.20;99.90
41310;DHT22;27057;51.438;-0.010;2023-08-17T13:54:53;30.00;99.90
41310;DHT22;27057;51.438;-0.010;2023-08-17T13:57:21;30.50;99.90
41310;DHT22;27057;51.438;-0.010;2023-08-17T13:59:48;30.50;99.90
41310;DHT22;27057;51.438;-0.010;2023-08-17T14:02:15;30.70;99.90
41310;DHT22;27057;51.438;-0.010;2023-08-17T14:04:43;30.60;99.90
41310;DHT22;27057;51.438;-0.010;2023-08-17T14:07:10;30.90;99.90
41310;DHT22;27057;51.438;-0.010;2023-08-17T14:09:37;30.90;99.90
41310;DHT22;27057;51.438;-0.010;2023-08-17T14:12:05;30.60;99.50
41310;DHT22;27057;51.438;-0.010;2023-08-17T14:14:32;30.60;99.80
41310;DHT22;27057;51.438;-0.010;2023-08-17T14:17:00;30.80;99.40
41310;DHT22;27057;51.438;-0.010;2023-08-17T14:19:29;30.80;99.70
41310;DHT22;27057;51.438;-0.010;2023-08-17T14:21:57;31.00;99.20
41310;DHT22;27057;51.438;-0.010;2023-08-17T14:24:28;31.30;98.40
41310;DHT22;27057;51.438;-0.010;2023-08-17T14:26:55;31.70;98.50
41310;DHT22;27057;51.438;-0.010;2023-08-17T14:29:25;31.20;98.10
41310;DHT22;27057;51.438;-0.010;2023-08-17T14:31:53;31.40;98.30
41310;DHT22;27057;51.438;-0.010;2023-08-17T14:34:22;31.60;98.00
41310;DHT22;27057;51.438;-0.010;2023-08-17T14:36:49;31.50;96.80
41310;DHT22;27057;51.438;-0.010;2023-08-17T14:39:17;31.50;96.90
41310;DHT22;27057;51.438;-0.010;2023-08-17T14:41:57;31.80;96.80
41310;DHT22;27057;51.438;-0.010;2023-08-17T14:44:25;31.60;95.40
41310;DHT22;27057;51.438;-0.010;2023-08-17T14:46:52;31.40;95.70
41310;DHT22;27057;51.438;-0.010;2023-08-17T14:49:19;31.60;96.50
41310;DHT22;27057;51.438;-0.010;2023-08-17T14:51:53;31.30;96.20
41310;DHT22;27057;51.438;-0.010;2023-08-17T14:54:20;31.00;96.20
41310;DHT22;27057;51.438;-0.010;2023-08-17T14:56:47;31.10;96.20
41310;DHT22;27057;51.438;-0.010;2023-08-17T14:59:15;31.00;95.70
41310;DHT22;27057;51.438;-0.010;2023-08-17T15:01:42;30.90;95.80
41310;DHT22;27057;51.438;-0.010;2023-08-17T15:04:10;30.80;95.90
41310;DHT22;27057;51.438;-0.010;2023-08-17T15:06:37;30.40;95.70
41310;DHT22;27057;51.438;-0.010;2023-08-17T15:09:08;30.30;96.10
41310;DHT22;27057;51.438;-0.010;2023-08-17T15:11:36;29.80;96.60
41310;DHT22;27057;51.438;-0.010;2023-08-17T15:14:03;29.40;96.90
41310;DHT22;27057;51.438;-0.010;2023-08-17T15:16:31;29.50;97.40
41310;DHT22;27057;51.438;-0.010;2023-08-17T15:18:58;29.20;96.40
41310;DHT22;27057;51.438;-0.010;2023-08-17T15:21:26;29.40;97.40
41310;DHT22;27057;51.438;-0.010;2023-08-17T15:23:53;29.60;96.80
41310;DHT22;27057;51.438;-0.010;2023-08-17T15:26:20;30.00;96.90
41310;DHT22;27057;51.438;-0.010;2023-08-17T15:28:48;30.30;95.90